logo
Search for airport 
image banner adimage banner adimage banner ad
image banner ad

FATP - New Tempe

Located in Bloemfontein, South Africa

ICAO - FATP, IATA -

Data provided by Airmate  

General information

Coordinates: S29°1'58" E26°9'29"
Elevation is 4526 feet MSL.
 
Rated:
View ratings:
[VIEW]
View others Airports in Free State

Operational data

Special qualification required
Current time UTC:
Current local time:
Weather at : FABL - Bram Fischer International ( 16 km )
METAR: FABL 180700Z VRB01KT CAVOK 16/12 Q1029 NOSIG
TAF: TAF FABL 180400Z 1806/1906 VRB03KT CAVOK TX22/1812Z TN11/1903Z PROB30 TEMPO 1900/1905 2000 BR BKN008
View NOTAMs / SUP AIP / TFR affecting this airport [VIEW]
Communications frequencies: [VIEW]

Runways:

RWY identifierQFULength (ft)Width (ft)SurfaceLDA (ft)
01351°426533ASP
19171°426533ASP
1078°393749ASP
28258°393749ASP

Airport contact information

Address: Bloemfontein South Africa

Other aviation service providers

Flight schools

Honiball Aviation Auditing

Honiball Aviation Auditing
thomas@aviationauditing.co.za+27741696950
+27713415715

Eagle Flight Academy

Eagle Flight Academy
Rated:
View ratings:
[VIEW]

Satellite view of FATP